sensor_id;sensor_type;location;lat;lon;timestamp;temperature;humidity
2749;DHT22;1382;52.142;11.618;2023-05-20T00:00:52;18.10;36.00
2749;DHT22;1382;52.142;11.618;2023-05-20T00:03:19;18.10;36.00
2749;DHT22;1382;52.142;11.618;2023-05-20T00:05:46;18.10;36.10
2749;DHT22;1382;52.142;11.618;2023-05-20T00:08:13;18.10;36.20
2749;DHT22;1382;52.142;11.618;2023-05-20T00:10:40;18.00;36.10
2749;DHT22;1382;52.142;11.618;2023-05-20T00:13:08;18.00;36.40
2749;DHT22;1382;52.142;11.618;2023-05-20T00:15:35;18.00;36.50
2749;DHT22;1382;52.142;11.618;2023-05-20T00:18:03;18.00;36.50
2749;DHT22;1382;52.142;11.618;2023-05-20T00:20:30;18.00;36.70
2749;DHT22;1382;52.142;11.618;2023-05-20T00:22:56;18.00;36.80
2749;DHT22;1382;52.142;11.618;2023-05-20T00:25:23;18.00;37.10
2749;DHT22;1382;52.142;11.618;2023-05-20T00:27:51;18.00;36.90
2749;DHT22;1382;52.142;11.618;2023-05-20T00:30:19;18.00;37.00
2749;DHT22;1382;52.142;11.618;2023-05-20T00:32:46;18.00;37.10
2749;DHT22;1382;52.142;11.618;2023-05-20T00:35:13;18.00;37.00
2749;DHT22;1382;52.142;11.618;2023-05-20T00:37:39;17.90;36.80
2749;DHT22;1382;52.142;11.618;2023-05-20T00:40:07;18.00;37.10
2749;DHT22;1382;52.142;11.618;2023-05-20T00:42:34;18.00;36.90
2749;DHT22;1382;52.142;11.618;2023-05-20T00:45:00;18.00;37.00
2749;DHT22;1382;52.142;11.618;2023-05-20T00:47:31;17.90;36.80
2749;DHT22;1382;52.142;11.618;2023-05-20T00:49:59;18.00;37.20
2749;DHT22;1382;52.142;11.618;2023-05-20T00:52:28;18.00;36.90
2749;DHT22;1382;52.142;11.618;2023-05-20T00:54:57;18.00;37.40
2749;DHT22;1382;52.142;11.618;2023-05-20T00:57:24;17.90;37.00
2749;DHT22;1382;52.142;11.618;2023-05-20T00:59:51;17.90;37.10
2749;DHT22;1382;52.142;11.618;2023-05-20T01:02:18;18.00;37.20
2749;DHT22;1382;52.142;11.618;2023-05-20T01:04:47;18.00;37.40
2749;DHT22;1382;52.142;11.618;2023-05-20T01:07:15;18.00;37.40
2749;DHT22;1382;52.142;11.618;2023-05-20T01:09:43;17.90;37.30
2749;DHT22;1382;52.142;11.618;2023-05-20T01:12:12;18.00;37.50
2749;DHT22;1382;52.142;11.618;2023-05-20T01:14:46;17.90;37.60
2749;DHT22;1382;52.142;11.618;2023-05-20T01:17:14;18.00;37.60
2749;DHT22;1382;52.142;11.618;2023-05-20T01:19:42;17.90;37.40
2749;DHT22;1382;52.142;11.618;2023-05-20T01:22:12;17.90;37.50
2749;DHT22;1382;52.142;11.618;2023-05-20T01:24:41;17.90;37.50
2749;DHT22;1382;52.142;11.618;2023-05-20T01:27:09;17.90;37.70
2749;DHT22;1382;52.142;11.618;2023-05-20T01:29:36;17.90;37.60
2749;DHT22;1382;52.142;11.618;2023-05-20T01:32:06;17.90;37.50
2749;DHT22;1382;52.142;11.618;2023-05-20T01:34:35;17.90;37.80
2749;DHT22;1382;52.142;11.618;2023-05-20T01:37:03;17.90;37.70
2749;DHT22;1382;52.142;11.618;2023-05-20T01:39:31;17.90;38.50
2749;DHT22;1382;52.142;11.618;2023-05-20T01:42:01;17.90;38.00
2749;DHT22;1382;52.142;11.618;2023-05-20T01:44:29;17.90;38.10
2749;DHT22;1382;52.142;11.618;2023-05-20T01:46:56;17.80;38.00
2749;DHT22;1382;52.142;11.618;2023-05-20T01:49:23;17.80;38.00
2749;DHT22;1382;52.142;11.618;2023-05-20T01:51:49;17.90;38.00
2749;DHT22;1382;52.142;11.618;2023-05-20T01:54:16;17.80;38.10
2749;DHT22;1382;52.142;11.618;2023-05-20T01:56:44;17.80;37.90
2749;DHT22;1382;52.142;11.618;2023-05-20T01:59:12;17.80;37.90
2749;DHT22;1382;52.142;11.618;2023-05-20T02:01:39;17.80;38.10
2749;DHT22;1382;52.142;11.618;2023-05-20T02:04:06;17.80;38.10
2749;DHT22;1382;52.142;11.618;2023-05-20T02:06:33;17.80;38.10
2749;DHT22;1382;52.142;11.618;2023-05-20T02:08:59;17.80;38.20
2749;DHT22;1382;52.142;11.618;2023-05-20T02:11:26;17.80;38.20
2749;DHT22;1382;52.142;11.618;2023-05-20T02:13:54;17.80;38.30
2749;DHT22;1382;52.142;11.618;2023-05-20T02:16:22;17.70;37.80
2749;DHT22;1382;52.142;11.618;2023-05-20T02:18:49;17.70;38.20
2749;DHT22;1382;52.142;11.618;2023-05-20T02:21:16;17.70;38.10
2749;DHT22;1382;52.142;11.618;2023-05-20T02:23:43;17.70;37.90
2749;DHT22;1382;52.142;11.618;2023-05-20T02:26:09;17.70;38.00
2749;DHT22;1382;52.142;11.618;2023-05-20T02:28:36;17.70;38.20
2749;DHT22;1382;52.142;11.618;2023-05-20T02:31:03;17.70;37.90
2749;DHT22;1382;52.142;11.618;2023-05-20T02:33:31;17.70;37.90
2749;DHT22;1382;52.142;11.618;2023-05-20T02:35:58;17.70;38.20
2749;DHT22;1382;52.142;11.618;2023-05-20T02:38:25;17.70;38.00
2749;DHT22;1382;52.142;11.618;2023-05-20T02:40:51;17.70;38.20
2749;DHT22;1382;52.142;11.618;2023-05-20T02:43:18;17.70;38.20
2749;DHT22;1382;52.142;11.618;2023-05-20T02:45:45;17.60;38.30
2749;DHT22;1382;52.142;11.618;2023-05-20T02:48:12;17.60;38.40
2749;DHT22;1382;52.142;11.618;2023-05-20T02:50:40;17.60;38.40
2749;DHT22;1382;52.142;11.618;2023-05-20T02:53:07;17.60;38.40
2749;DHT22;1382;52.142;11.618;2023-05-20T02:55:34;17.60;38.30
2749;DHT22;1382;52.142;11.618;2023-05-20T02:58:01;17.60;38.10
2749;DHT22;1382;52.142;11.618;2023-05-20T03:00:28;17.60;38.20
2749;DHT22;1382;52.142;11.618;2023-05-20T03:02:55;17.60;38.30
2749;DHT22;1382;52.142;11.618;2023-05-20T03:05:22;17.60;38.50
2749;DHT22;1382;52.142;11.618;2023-05-20T03:07:50;17.50;38.30
2749;DHT22;1382;52.142;11.618;2023-05-20T03:10:16;17.50;38.70
2749;DHT22;1382;52.142;11.618;2023-05-20T03:12:43;17.50;38.60
2749;DHT22;1382;52.142;11.618;2023-05-20T03:15:10;17.50;38.60
2749;DHT22;1382;52.142;11.618;2023-05-20T03:17:37;17.40;38.60
2749;DHT22;1382;52.142;11.618;2023-05-20T03:20:04;17.40;38.70
2749;DHT22;1382;52.142;11.618;2023-05-20T03:22:31;17.40;38.60
2749;DHT22;1382;52.142;11.618;2023-05-20T03:24:59;17.40;38.60
2749;DHT22;1382;52.142;11.618;2023-05-20T03:27:26;17.40;38.90
2749;DHT22;1382;52.142;11.618;2023-05-20T03:29:53;17.40;38.80
2749;DHT22;1382;52.142;11.618;2023-05-20T03:32:19;17.40;38.90
2749;DHT22;1382;52.142;11.618;2023-05-20T03:34:46;17.40;38.90
2749;DHT22;1382;52.142;11.618;2023-05-20T03:37:13;17.40;38.90
2749;DHT22;1382;52.142;11.618;2023-05-20T03:39:40;17.40;38.80
2749;DHT22;1382;52.142;11.618;2023-05-20T03:42:08;17.30;38.70
2749;DHT22;1382;52.142;11.618;2023-05-20T03:44:34;17.30;39.10
2749;DHT22;1382;52.142;11.618;2023-05-20T03:47:01;17.30;39.00
2749;DHT22;1382;52.142;11.618;2023-05-20T03:49:28;17.30;39.20
2749;DHT22;1382;52.142;11.618;2023-05-20T03:51:55;17.30;39.20
2749;DHT22;1382;52.142;11.618;2023-05-20T03:54:21;17.30;39.20
2749;DHT22;1382;52.142;11.618;2023-05-20T03:56:48;17.30;39.70
2749;DHT22;1382;52.142;11.618;2023-05-20T03:59:17;17.30;40.10
2749;DHT22;1382;52.142;11.618;2023-05-20T04:01:44;17.30;40.20
2749;DHT22;1382;52.142;11.618;2023-05-20T04:04:11;17.20;40.20
2749;DHT22;1382;52.142;11.618;2023-05-20T04:06:38;17.20;40.10
2749;DHT22;1382;52.142;11.618;2023-05-20T04:09:04;17.20;40.10
2749;DHT22;1382;52.142;11.618;2023-05-20T04:11:31;17.20;40.00
2749;DHT22;1382;52.142;11.618;2023-05-20T04:13:58;17.20;40.20
2749;DHT22;1382;52.142;11.618;2023-05-20T04:16:26;17.20;40.00
2749;DHT22;1382;52.142;11.618;2023-05-20T04:18:53;17.20;40.20
2749;DHT22;1382;52.142;11.618;2023-05-20T04:21:20;17.20;39.90
2749;DHT22;1382;52.142;11.618;2023-05-20T04:23:46;17.20;40.00
2749;DHT22;1382;52.142;11.618;2023-05-20T04:26:13;17.20;40.10
2749;DHT22;1382;52.142;11.618;2023-05-20T04:28:40;17.20;40.30
2749;DHT22;1382;52.142;11.618;2023-05-20T04:31:07;17.20;39.50
2749;DHT22;1382;52.142;11.618;2023-05-20T04:33:35;17.20;40.70
2749;DHT22;1382;52.142;11.618;2023-05-20T04:36:02;17.20;40.50
2749;DHT22;1382;52.142;11.618;2023-05-20T04:38:29;17.20;40.80
2749;DHT22;1382;52.142;11.618;2023-05-20T04:40:56;17.20;41.20
2749;DHT22;1382;52.142;11.618;2023-05-20T04:43:23;17.20;41.30
2749;DHT22;1382;52.142;11.618;2023-05-20T04:45:50;17.20;41.00
2749;DHT22;1382;52.142;11.618;2023-05-20T04:48:16;17.20;40.20
2749;DHT22;1382;52.142;11.618;2023-05-20T04:50:44;17.20;40.70
2749;DHT22;1382;52.142;11.618;2023-05-20T04:53:11;17.10;40.60
2749;DHT22;1382;52.142;11.618;2023-05-20T04:55:38;17.20;40.60
2749;DHT22;1382;52.142;11.618;2023-05-20T04:58:04;17.20;40.90
2749;DHT22;1382;52.142;11.618;2023-05-20T05:00:31;17.20;40.90
2749;DHT22;1382;52.142;11.618;2023-05-20T05:02:58;17.20;40.90
2749;DHT22;1382;52.142;11.618;2023-05-20T05:05:25;17.20;40.70
2749;DHT22;1382;52.142;11.618;2023-05-20T05:07:53;17.20;41.00
2749;DHT22;1382;52.142;11.618;2023-05-20T05:10:19;17.20;41.20
2749;DHT22;1382;52.142;11.618;2023-05-20T05:12:46;17.20;40.90
2749;DHT22;1382;52.142;11.618;2023-05-20T05:15:13;17.20;41.20
2749;DHT22;1382;52.142;11.618;2023-05-20T05:17:40;17.20;41.40
2749;DHT22;1382;52.142;11.618;2023-05-20T05:20:08;17.20;41.30
2749;DHT22;1382;52.142;11.618;2023-05-20T05:22:35;17.20;41.50
2749;DHT22;1382;52.142;11.618;2023-05-20T05:25:03;17.20;41.40
2749;DHT22;1382;52.142;11.618;2023-05-20T05:27:30;17.20;41.30
2749;DHT22;1382;52.142;11.618;2023-05-20T05:29:56;17.20;41.30
2749;DHT22;1382;52.142;11.618;2023-05-20T05:32:23;17.20;41.20
2749;DHT22;1382;52.142;11.618;2023-05-20T05:34:50;17.20;41.50
2749;DHT22;1382;52.142;11.618;2023-05-20T05:37:17;17.20;41.20
2749;DHT22;1382;52.142;11.618;2023-05-20T05:39:44;17.20;41.50
2749;DHT22;1382;52.142;11.618;2023-05-20T05:42:12;17.20;41.70
2749;DHT22;1382;52.142;11.618;2023-05-20T05:44:39;17.30;41.90
2749;DHT22;1382;52.142;11.618;2023-05-20T05:47:05;17.30;41.70
2749;DHT22;1382;52.142;11.618;2023-05-20T05:49:32;17.30;41.50
2749;DHT22;1382;52.142;11.618;2023-05-20T05:51:59;17.30;41.60
2749;DHT22;1382;52.142;11.618;2023-05-20T05:54:26;17.30;41.70
2749;DHT22;1382;52.142;11.618;2023-05-20T05:56:53;17.30;42.10
2749;DHT22;1382;52.142;11.618;2023-05-20T05:59:21;17.30;41.70
2749;DHT22;1382;52.142;11.618;2023-05-20T06:01:48;17.40;41.50
2749;DHT22;1382;52.142;11.618;2023-05-20T06:04:15;17.30;41.30
2749;DHT22;1382;52.142;11.618;2023-05-20T06:06:42;17.30;41.70
2749;DHT22;1382;52.142;11.618;2023-05-20T06:09:08;17.40;41.70
2749;DHT22;1382;52.142;11.618;2023-05-20T06:11:35;17.40;42.30
2749;DHT22;1382;52.142;11.618;2023-05-20T06:14:02;17.40;42.80
2749;DHT22;1382;52.142;11.618;2023-05-20T06:16:30;17.40;42.60
2749;DHT22;1382;52.142;11.618;2023-05-20T06:18:57;17.40;42.70
2749;DHT22;1382;52.142;11.618;2023-05-20T06:21:26;17.40;43.60
2749;DHT22;1382;52.142;11.618;2023-05-20T06:23:53;17.40;42.80
2749;DHT22;1382;52.142;11.618;2023-05-20T06:26:19;17.50;43.10
2749;DHT22;1382;52.142;11.618;2023-05-20T06:28:46;17.50;43.60
2749;DHT22;1382;52.142;11.618;2023-05-20T06:31:13;17.50;43.20
2749;DHT22;1382;52.142;11.618;2023-05-20T06:33:41;17.60;43.60
2749;DHT22;1382;52.142;11.618;2023-05-20T06:36:08;17.60;43.80
2749;DHT22;1382;52.142;11.618;2023-05-20T06:38:34;17.70;43.30
2749;DHT22;1382;52.142;11.618;2023-05-20T06:41:01;17.70;43.80
2749;DHT22;1382;52.142;11.618;2023-05-20T06:43:28;17.70;43.50
2749;DHT22;1382;52.142;11.618;2023-05-20T06:45:55;17.80;43.60
2749;DHT22;1382;52.142;11.618;2023-05-20T06:48:22;17.90;43.50
2749;DHT22;1382;52.142;11.618;2023-05-20T06:50:50;17.90;43.40
2749;DHT22;1382;52.142;11.618;2023-05-20T06:53:17;18.00;44.00
2749;DHT22;1382;52.142;11.618;2023-05-20T06:55:43;18.00;43.90
2749;DHT22;1382;52.142;11.618;2023-05-20T06:58:10;18.00;43.70
2749;DHT22;1382;52.142;11.618;2023-05-20T07:00:37;18.10;43.80
2749;DHT22;1382;52.142;11.618;2023-05-20T07:03:04;18.20;44.10
2749;DHT22;1382;52.142;11.618;2023-05-20T07:05:30;18.30;44.30
2749;DHT22;1382;52.142;11.618;2023-05-20T07:07:59;18.30;44.30
2749;DHT22;1382;52.142;11.618;2023-05-20T07:10:26;18.40;44.50
2749;DHT22;1382;52.142;11.618;2023-05-20T07:12:52;18.50;44.50
2749;DHT22;1382;52.142;11.618;2023-05-20T07:15:19;18.60;44.40
2749;DHT22;1382;52.142;11.618;2023-05-20T07:17:46;18.60;44.00
2749;DHT22;1382;52.142;11.618;2023-05-20T07:20:13;18.70;44.30
2749;DHT22;1382;52.142;11.618;2023-05-20T07:22:39;18.90;44.40
2749;DHT22;1382;52.142;11.618;2023-05-20T07:25:08;18.90;44.30
2749;DHT22;1382;52.142;11.618;2023-05-20T07:27:35;19.00;44.30
2749;DHT22;1382;52.142;11.618;2023-05-20T07:30:02;19.20;44.10
2749;DHT22;1382;52.142;11.618;2023-05-20T07:32:29;19.20;44.10
2749;DHT22;1382;52.142;11.618;2023-05-20T07:34:56;19.30;43.90
2749;DHT22;1382;52.142;11.618;2023-05-20T07:37:23;19.40;43.60
2749;DHT22;1382;52.142;11.618;2023-05-20T07:39:50;19.50;43.80
2749;DHT22;1382;52.142;11.618;2023-05-20T07:42:18;19.60;43.80
2749;DHT22;1382;52.142;11.618;2023-05-20T07:44:44;19.50;43.50
2749;DHT22;1382;52.142;11.618;2023-05-20T07:47:12;19.60;43.50
2749;DHT22;1382;52.142;11.618;2023-05-20T07:49:39;19.60;43.70
2749;DHT22;1382;52.142;11.618;2023-05-20T07:52:06;19.60;43.70
2749;DHT22;1382;52.142;11.618;2023-05-20T07:54:33;19.60;43.70
2749;DHT22;1382;52.142;11.618;2023-05-20T07:57:00;19.60;43.60
2749;DHT22;1382;52.142;11.618;2023-05-20T07:59:28;19.60;44.00
2749;DHT22;1382;52.142;11.618;2023-05-20T08:01:55;19.70;44.10
2749;DHT22;1382;52.142;11.618;2023-05-20T08:04:21;19.70;44.20
2749;DHT22;1382;52.142;11.618;2023-05-20T08:06:48;19.60;43.80
2749;DHT22;1382;52.142;11.618;2023-05-20T08:09:15;19.60;44.10
2749;DHT22;1382;52.142;11.618;2023-05-20T08:11:42;19.60;44.00
2749;DHT22;1382;52.142;11.618;2023-05-20T08:14:11;19.60;45.00
2749;DHT22;1382;52.142;11.618;2023-05-20T08:16:40;19.60;44.50
2749;DHT22;1382;52.142;11.618;2023-05-20T08:19:07;19.60;44.40
2749;DHT22;1382;52.142;11.618;2023-05-20T08:21:34;19.60;44.40
2749;DHT22;1382;52.142;11.618;2023-05-20T08:24:01;19.60;44.60
2749;DHT22;1382;52.142;11.618;2023-05-20T08:26:27;19.60;44.50
2749;DHT22;1382;52.142;11.618;2023-05-20T08:28:54;19.60;44.30
2749;DHT22;1382;52.142;11.618;2023-05-20T08:31:21;19.60;44.20
2749;DHT22;1382;52.142;11.618;2023-05-20T08:33:49;19.70;44.60
2749;DHT22;1382;52.142;11.618;2023-05-20T08:36:16;19.70;44.60
2749;DHT22;1382;52.142;11.618;2023-05-20T08:38:42;19.70;44.30
2749;DHT22;1382;52.142;11.618;2023-05-20T08:41:09;19.70;44.30
2749;DHT22;1382;52.142;11.618;2023-05-20T08:43:36;19.70;44.50
2749;DHT22;1382;52.142;11.618;2023-05-20T08:46:03;19.80;44.80
2749;DHT22;1382;52.142;11.618;2023-05-20T08:48:30;19.80;44.60
2749;DHT22;1382;52.142;11.618;2023-05-20T08:51:02;19.80;44.30
2749;DHT22;1382;52.142;11.618;2023-05-20T08:53:29;19.80;44.30
2749;DHT22;1382;52.142;11.618;2023-05-20T08:55:59;19.80;44.50
2749;DHT22;1382;52.142;11.618;2023-05-20T08:58:27;19.90;44.60
2749;DHT22;1382;52.142;11.618;2023-05-20T09:00:54;19.90;44.30
2749;DHT22;1382;52.142;11.618;2023-05-20T09:03:21;19.90;44.60
2749;DHT22;1382;52.142;11.618;2023-05-20T09:05:47;19.90;44.60
2749;DHT22;1382;52.142;11.618;2023-05-20T09:08:15;19.90;44.30
2749;DHT22;1382;52.142;11.618;2023-05-20T09:10:42;20.00;44.30
2749;DHT22;1382;52.142;11.618;2023-05-20T09:13:10;20.00;44.30
2749;DHT22;1382;52.142;11.618;2023-05-20T09:15:37;20.00;44.90
2749;DHT22;1382;52.142;11.618;2023-05-20T09:18:06;19.80;46.20
2749;DHT22;1382;52.142;11.618;2023-05-20T09:20:34;19.80;46.20
2749;DHT22;1382;52.142;11.618;2023-05-20T09:23:02;19.80;45.90
2749;DHT22;1382;52.142;11.618;2023-05-20T09:25:30;19.90;45.70
2749;DHT22;1382;52.142;11.618;2023-05-20T09:27:57;19.90;45.30
2749;DHT22;1382;52.142;11.618;2023-05-20T09:30:24;20.00;45.30
2749;DHT22;1382;52.142;11.618;2023-05-20T09:32:54;20.10;45.20
2749;DHT22;1382;52.142;11.618;2023-05-20T09:35:21;20.10;45.10
2749;DHT22;1382;52.142;11.618;2023-05-20T09:37:51;20.20;44.80
2749;DHT22;1382;52.142;11.618;2023-05-20T09:40:21;20.20;45.40
2749;DHT22;1382;52.142;11.618;2023-05-20T09:42:52;20.20;44.30
2749;DHT22;1382;52.142;11.618;2023-05-20T09:45:20;20.30;44.60
2749;DHT22;1382;52.142;11.618;2023-05-20T09:47:49;20.30;44.40
2749;DHT22;1382;52.142;11.618;2023-05-20T09:50:16;20.30;44.50
2749;DHT22;1382;52.142;11.618;2023-05-20T09:52:43;20.40;44.30
2749;DHT22;1382;52.142;11.618;2023-05-20T09:55:10;20.40;44.40
2749;DHT22;1382;52.142;11.618;2023-05-20T09:57:37;20.40;44.50
2749;DHT22;1382;52.142;11.618;2023-05-20T10:00:06;20.40;44.50
2749;DHT22;1382;52.142;11.618;2023-05-20T10:02:34;20.50;44.50
2749;DHT22;1382;52.142;11.618;2023-05-20T10:05:03;20.50;44.60
2749;DHT22;1382;52.142;11.618;2023-05-20T10:10:38;20.50;44.50
2749;DHT22;1382;52.142;11.618;2023-05-20T10:13:16;20.50;44.50
2749;DHT22;1382;52.142;11.618;2023-05-20T10:15:50;20.60;44.70
2749;DHT22;1382;52.142;11.618;2023-05-20T10:18:32;20.60;44.80
2749;DHT22;1382;52.142;11.618;2023-05-20T10:21:02;20.60;44.50
2749;DHT22;1382;52.142;11.618;2023-05-20T10:23:29;20.60;44.10
2749;DHT22;1382;52.142;11.618;2023-05-20T10:25:57;20.70;44.50
2749;DHT22;1382;52.142;11.618;2023-05-20T10:28:28;20.70;44.60
2749;DHT22;1382;52.142;11.618;2023-05-20T10:30:57;20.70;44.70
2749;DHT22;1382;52.142;11.618;2023-05-20T10:33:25;20.70;44.60
2749;DHT22;1382;52.142;11.618;2023-05-20T10:35:52;20.70;44.70
2749;DHT22;1382;52.142;11.618;2023-05-20T10:38:19;20.80;44.40
2749;DHT22;1382;52.142;11.618;2023-05-20T10:40:46;20.80;44.40
2749;DHT22;1382;52.142;11.618;2023-05-20T10:43:14;20.90;44.20
2749;DHT22;1382;52.142;11.618;2023-05-20T10:45:48;20.90;44.30
2749;DHT22;1382;52.142;11.618;2023-05-20T10:48:27;21.00;44.40
2749;DHT22;1382;52.142;11.618;2023-05-20T10:50:55;21.00;44.30
2749;DHT22;1382;52.142;11.618;2023-05-20T10:53:23;21.00;44.20
2749;DHT22;1382;52.142;11.618;2023-05-20T10:56:00;21.00;44.30
2749;DHT22;1382;52.142;11.618;2023-05-20T10:58:27;21.00;44.50
2749;DHT22;1382;52.142;11.618;2023-05-20T11:01:01;21.10;44.50
2749;DHT22;1382;52.142;11.618;2023-05-20T11:03:29;21.10;44.30
2749;DHT22;1382;52.142;11.618;2023-05-20T11:05:57;21.20;44.30
2749;DHT22;1382;52.142;11.618;2023-05-20T11:08:28;21.20;44.30
2749;DHT22;1382;52.142;11.618;2023-05-20T11:10:56;21.30;44.10
2749;DHT22;1382;52.142;11.618;2023-05-20T11:13:24;21.30;44.40
2749;DHT22;1382;52.142;11.618;2023-05-20T11:15:51;21.20;44.50
2749;DHT22;1382;52.142;11.618;2023-05-20T11:18:18;21.30;44.60
2749;DHT22;1382;52.142;11.618;2023-05-20T11:20:46;21.40;44.30
2749;DHT22;1382;52.142;11.618;2023-05-20T11:23:14;21.50;44.60
2749;DHT22;1382;52.142;11.618;2023-05-20T11:25:41;21.50;44.50
2749;DHT22;1382;52.142;11.618;2023-05-20T11:28:11;21.60;44.50
2749;DHT22;1382;52.142;11.618;2023-05-20T11:30:37;21.70;44.20
2749;DHT22;1382;52.142;11.618;2023-05-20T11:33:04;21.70;44.40
2749;DHT22;1382;52.142;11.618;2023-05-20T11:35:31;21.80;44.30
2749;DHT22;1382;52.142;11.618;2023-05-20T11:38:02;21.80;44.20
2749;DHT22;1382;52.142;11.618;2023-05-20T11:40:30;21.90;44.20
2749;DHT22;1382;52.142;11.618;2023-05-20T11:43:13;21.90;44.10
2749;DHT22;1382;52.142;11.618;2023-05-20T11:45:40;22.00;44.00
2749;DHT22;1382;52.142;11.618;2023-05-20T11:48:08;22.00;44.00
2749;DHT22;1382;52.142;11.618;2023-05-20T11:50:36;22.10;44.00
2749;DHT22;1382;52.142;11.618;2023-05-20T11:53:05;22.10;44.00
2749;DHT22;1382;52.142;11.618;2023-05-20T11:55:33;22.20;44.00
2749;DHT22;1382;52.142;11.618;2023-05-20T11:58:00;22.20;44.90
2749;DHT22;1382;52.142;11.618;2023-05-20T12:00:28;22.00;44.80
2749;DHT22;1382;52.142;11.618;2023-05-20T12:03:08;22.00;45.00
2749;DHT22;1382;52.142;11.618;2023-05-20T12:05:35;22.20;44.80
2749;DHT22;1382;52.142;11.618;2023-05-20T12:08:04;22.30;44.50
2749;DHT22;1382;52.142;11.618;2023-05-20T12:10:31;22.40;44.10
2749;DHT22;1382;52.142;11.618;2023-05-20T12:12:58;22.60;44.10
2749;DHT22;1382;52.142;11.618;2023-05-20T12:15:25;22.60;43.80
2749;DHT22;1382;52.142;11.618;2023-05-20T12:17:53;22.70;44.00
2749;DHT22;1382;52.142;11.618;2023-05-20T12:20:21;22.70;43.70
2749;DHT22;1382;52.142;11.618;2023-05-20T12:22:48;22.80;43.70
2749;DHT22;1382;52.142;11.618;2023-05-20T12:25:18;23.00;43.70
2749;DHT22;1382;52.142;11.618;2023-05-20T12:27:46;22.90;43.40
2749;DHT22;1382;52.142;11.618;2023-05-20T12:30:15;23.00;43.40
2749;DHT22;1382;52.142;11.618;2023-05-20T12:32:42;23.00;43.20
2749;DHT22;1382;52.142;11.618;2023-05-20T12:35:09;23.10;43.20
2749;DHT22;1382;52.142;11.618;2023-05-20T12:37:37;23.20;43.20
2749;DHT22;1382;52.142;11.618;2023-05-20T12:40:05;23.20;43.10
2749;DHT22;1382;52.142;11.618;2023-05-20T12:42:33;23.30;43.60
2749;DHT22;1382;52.142;11.618;2023-05-20T12:45:00;23.40;42.90
2749;DHT22;1382;52.142;11.618;2023-05-20T12:47:27;23.50;42.80
2749;DHT22;1382;52.142;11.618;2023-05-20T12:49:54;23.60;42.60
2749;DHT22;1382;52.142;11.618;2023-05-20T12:52:21;23.60;42.70
2749;DHT22;1382;52.142;11.618;2023-05-20T12:54:48;23.70;42.80
2749;DHT22;1382;52.142;11.618;2023-05-20T12:57:15;23.80;42.70
2749;DHT22;1382;52.142;11.618;2023-05-20T12:59:43;23.90;42.50
2749;DHT22;1382;52.142;11.618;2023-05-20T13:02:10;24.00;42.40
2749;DHT22;1382;52.142;11.618;2023-05-20T13:04:37;24.10;42.30
2749;DHT22;1382;52.142;11.618;2023-05-20T13:07:04;24.20;42.20
2749;DHT22;1382;52.142;11.618;2023-05-20T13:09:31;24.30;42.20
2749;DHT22;1382;52.142;11.618;2023-05-20T13:11:58;24.40;42.20
2749;DHT22;1382;52.142;11.618;2023-05-20T13:14:24;24.40;41.90
2749;DHT22;1382;52.142;11.618;2023-05-20T13:16:53;24.50;41.80
2749;DHT22;1382;52.142;11.618;2023-05-20T13:19:19;24.60;41.80
2749;DHT22;1382;52.142;11.618;2023-05-20T13:21:46;24.60;41.50
2749;DHT22;1382;52.142;11.618;2023-05-20T13:24:13;24.70;41.70
2749;DHT22;1382;52.142;11.618;2023-05-20T13:26:40;24.80;41.40
2749;DHT22;1382;52.142;11.618;2023-05-20T13:29:07;24.80;41.30
2749;DHT22;1382;52.142;11.618;2023-05-20T13:31:34;24.90;41.40
2749;DHT22;1382;52.142;11.618;2023-05-20T13:34:02;25.00;41.40
2749;DHT22;1382;52.142;11.618;2023-05-20T13:36:29;25.00;40.40
2749;DHT22;1382;52.142;11.618;2023-05-20T13:38:55;25.00;41.00
2749;DHT22;1382;52.142;11.618;2023-05-20T13:41:23;24.90;40.30
2749;DHT22;1382;52.142;11.618;2023-05-20T13:43:50;24.80;41.10
2749;DHT22;1382;52.142;11.618;2023-05-20T13:46:16;24.80;40.70
2749;DHT22;1382;52.142;11.618;2023-05-20T13:48:43;24.70;40.70
2749;DHT22;1382;52.142;11.618;2023-05-20T13:51:11;24.60;40.90
2749;DHT22;1382;52.142;11.618;2023-05-20T13:53:38;24.60;41.00
2749;DHT22;1382;52.142;11.618;2023-05-20T13:56:05;24.50;40.70
2749;DHT22;1382;52.142;11.618;2023-05-20T13:58:32;24.60;41.30
2749;DHT22;1382;52.142;11.618;2023-05-20T14:00:59;24.60;41.50
2749;DHT22;1382;52.142;11.618;2023-05-20T14:03:26;24.60;40.90
2749;DHT22;1382;52.142;11.618;2023-05-20T14:05:53;24.60;41.30
2749;DHT22;1382;52.142;11.618;2023-05-20T14:08:21;24.70;40.90
2749;DHT22;1382;52.142;11.618;2023-05-20T14:10:48;24.70;41.00
2749;DHT22;1382;52.142;11.618;2023-05-20T14:13:15;24.80;41.00
2749;DHT22;1382;52.142;11.618;2023-05-20T14:15:41;24.80;40.70
2749;DHT22;1382;52.142;11.618;2023-05-20T14:18:08;24.80;40.80
2749;DHT22;1382;52.142;11.618;2023-05-20T14:20:35;24.80;40.90
2749;DHT22;1382;52.142;11.618;2023-05-20T14:23:02;24.80;40.90
2749;DHT22;1382;52.142;11.618;2023-05-20T14:25:31;24.90;41.40
2749;DHT22;1382;52.142;11.618;2023-05-20T14:27:57;24.90;40.70
2749;DHT22;1382;52.142;11.618;2023-05-20T14:30:24;24.90;41.00
2749;DHT22;1382;52.142;11.618;2023-05-20T14:32:51;24.90;40.90
2749;DHT22;1382;52.142;11.618;2023-05-20T14:35:18;24.90;41.40
2749;DHT22;1382;52.142;11.618;2023-05-20T14:37:45;25.00;41.30
2749;DHT22;1382;52.142;11.618;2023-05-20T14:40:12;25.20;41.50
2749;DHT22;1382;52.142;11.618;2023-05-20T14:42:40;25.20;41.20
2749;DHT22;1382;52.142;11.618;2023-05-20T14:45:08;25.30;41.00
2749;DHT22;1382;52.142;11.618;2023-05-20T14:47:35;25.20;40.80
2749;DHT22;1382;52.142;11.618;2023-05-20T14:50:02;25.20;41.00
2749;DHT22;1382;52.142;11.618;2023-05-20T14:52:28;25.30;40.50
2749;DHT22;1382;52.142;11.618;2023-05-20T14:54:55;25.30;40.80
2749;DHT22;1382;52.142;11.618;2023-05-20T14:57:22;25.40;40.80
2749;DHT22;1382;52.142;11.618;2023-05-20T14:59:50;25.40;40.60
2749;DHT22;1382;52.142;11.618;2023-05-20T15:02:17;25.40;40.20
2749;DHT22;1382;52.142;11.618;2023-05-20T15:04:44;25.50;40.80
2749;DHT22;1382;52.142;11.618;2023-05-20T15:07:10;25.40;40.80
2749;DHT22;1382;52.142;11.618;2023-05-20T15:09:37;25.50;40.80
2749;DHT22;1382;52.142;11.618;2023-05-20T15:12:04;25.50;40.60
2749;DHT22;1382;52.142;11.618;2023-05-20T15:14:31;25.50;40.40
2749;DHT22;1382;52.142;11.618;2023-05-20T15:16:59;25.60;40.70
2749;DHT22;1382;52.142;11.618;2023-05-20T15:19:27;25.60;40.60
2749;DHT22;1382;52.142;11.618;2023-05-20T15:21:54;25.60;40.10
2749;DHT22;1382;52.142;11.618;2023-05-20T15:24:20;25.60;40.60
2749;DHT22;1382;52.142;11.618;2023-05-20T15:26:47;25.70;40.30
2749;DHT22;1382;52.142;11.618;2023-05-20T15:29:14;25.60;40.10
2749;DHT22;1382;52.142;11.618;2023-05-20T15:31:41;25.80;40.60
2749;DHT22;1382;52.142;11.618;2023-05-20T15:34:09;25.70;40.50
2749;DHT22;1382;52.142;11.618;2023-05-20T15:36:35;25.80;40.40
2749;DHT22;1382;52.142;11.618;2023-05-20T15:39:02;25.80;40.10
2749;DHT22;1382;52.142;11.618;2023-05-20T15:41:30;25.80;40.30
2749;DHT22;1382;52.142;11.618;2023-05-20T15:43:56;25.80;40.10
2749;DHT22;1382;52.142;11.618;2023-05-20T15:46:23;25.80;39.90
2749;DHT22;1382;52.142;11.618;2023-05-20T15:48:50;25.80;40.40